createdAt,value
2023-01-20T00:01:18.232Z,12.30
2023-01-20T00:03:45.649Z,12.10
2023-01-20T00:06:12.065Z,13.07
2023-01-20T00:08:38.863Z,11.43
2023-01-20T00:13:31.738Z,12.15
2023-01-20T00:15:57.978Z,11.48
2023-01-20T00:18:24.181Z,11.57
2023-01-20T00:20:50.380Z,11.05
2023-01-20T00:23:16.579Z,10.55
2023-01-20T00:25:42.797Z,10.98
2023-01-20T00:28:09.021Z,11.48
2023-01-20T00:30:35.608Z,13.85
2023-01-20T00:33:01.845Z,12.05
2023-01-20T00:35:28.052Z,13.02
2023-01-20T00:37:54.348Z,14.23
2023-01-20T00:40:20.583Z,13.02
2023-01-20T00:42:46.792Z,12.20
2023-01-20T00:45:13.331Z,13.13
2023-01-20T00:47:39.736Z,12.88
2023-01-20T00:50:06.073Z,11.80
2023-01-20T00:52:32.296Z,11.20
2023-01-20T00:54:58.503Z,12.65
2023-01-20T00:57:24.739Z,12.25
2023-01-20T00:59:50.960Z,16.95
2023-01-20T01:02:17.295Z,14.23
2023-01-20T01:04:43.585Z,13.38
2023-01-20T01:07:09.814Z,13.85
2023-01-20T01:09:36.055Z,14.07
2023-01-20T01:12:02.289Z,14.98
2023-01-20T01:14:30.351Z,13.70
2023-01-20T01:16:57.468Z,14.93
2023-01-20T01:19:23.791Z,12.93
2023-01-20T01:21:50.004Z,13.93
2023-01-20T01:24:16.258Z,14.60
2023-01-20T01:26:42.539Z,12.93
2023-01-20T01:29:08.776Z,14.15
2023-01-20T01:31:35.184Z,14.82
2023-01-20T01:34:01.460Z,16.50
2023-01-20T01:36:27.734Z,15.15
2023-01-20T01:38:58.324Z,15.02
2023-01-20T01:41:25.954Z,15.32
2023-01-20T01:44:00.204Z,15.63
2023-01-20T01:46:26.436Z,16.10
2023-01-20T01:48:53.017Z,14.75
2023-01-20T01:51:25.039Z,16.33
2023-01-20T01:53:57.355Z,14.73
2023-01-20T01:56:27.455Z,14.30
2023-01-20T01:58:54.783Z,15.60
2023-01-20T02:01:21.113Z,14.13
2023-01-20T02:03:52.436Z,15.70
2023-01-20T02:06:19.677Z,15.25
2023-01-20T02:08:45.972Z,15.70
2023-01-20T02:11:12.284Z,15.70
2023-01-20T02:13:38.843Z,14.98
2023-01-20T02:16:10.889Z,16.13
2023-01-20T02:18:55.964Z,15.18
2023-01-20T02:21:22.178Z,15.80
2023-01-20T02:24:17.775Z,13.98
2023-01-20T02:27:02.639Z,14.98
2023-01-20T02:29:31.980Z,14.20
2023-01-20T02:32:22.657Z,15.88
2023-01-20T02:34:48.841Z,14.07
2023-01-20T02:37:16.957Z,14.60
2023-01-20T02:39:55.101Z,13.77
2023-01-20T02:42:32.128Z,14.35
2023-01-20T02:45:06.289Z,13.98
2023-01-20T02:47:38.317Z,14.10
2023-01-20T02:50:09.277Z,13.15
2023-01-20T02:52:37.193Z,15.00
2023-01-20T02:55:06.019Z,13.93
2023-01-20T02:57:37.564Z,14.15
2023-01-20T03:00:09.241Z,14.27
2023-01-20T03:02:35.928Z,13.88
2023-01-20T03:05:07.372Z,11.65
2023-01-20T03:07:35.621Z,13.82
2023-01-20T03:10:04.729Z,13.13
2023-01-20T03:12:34.924Z,13.95
2023-01-20T03:15:01.181Z,13.23
2023-01-20T03:17:27.529Z,11.63
2023-01-20T03:19:53.823Z,13.65
2023-01-20T03:22:20.246Z,12.80
2023-01-20T03:24:47.353Z,11.98
2023-01-20T03:27:13.697Z,12.98
2023-01-20T03:29:39.967Z,11.48
2023-01-20T03:32:08.512Z,12.25
2023-01-20T03:34:36.059Z,9.88
2023-01-20T03:37:03.657Z,11.25
2023-01-20T03:39:30.062Z,11.82
2023-01-20T03:42:01.363Z,11.63
2023-01-20T03:44:30.695Z,11.50
2023-01-20T03:46:56.914Z,10.40
2023-01-20T03:49:31.853Z,13.13
2023-01-20T03:52:47.250Z,12.57
2023-01-20T03:55:16.147Z,10.18
2023-01-20T03:57:45.682Z,11.55
2023-01-20T04:00:12.940Z,11.93
2023-01-20T04:02:40.115Z,10.90
2023-01-20T04:05:07.365Z,10.27
2023-01-20T04:07:33.761Z,10.40
2023-01-20T04:10:05.325Z,9.98
2023-01-20T04:12:31.669Z,10.10
2023-01-20T04:14:58.057Z,9.20
2023-01-20T04:17:28.015Z,10.38
2023-01-20T04:19:54.628Z,10.27
2023-01-20T04:22:26.764Z,10.52
2023-01-20T04:24:55.533Z,9.55
2023-01-20T04:27:21.785Z,10.55
2023-01-20T04:29:48.054Z,9.18
2023-01-20T04:32:14.352Z,10.90
2023-01-20T04:34:40.637Z,9.15
2023-01-20T04:37:06.899Z,10.48
2023-01-20T04:39:33.227Z,10.85
2023-01-20T04:41:59.504Z,9.48
2023-01-20T04:44:25.885Z,11.05
2023-01-20T04:46:55.896Z,10.27
2023-01-20T04:49:22.287Z,12.07
2023-01-20T04:51:48.497Z,10.55
2023-01-20T04:54:14.743Z,11.77
2023-01-20T04:56:40.956Z,10.73
2023-01-20T04:59:07.166Z,11.23
2023-01-20T05:01:33.504Z,11.43
2023-01-20T05:03:59.772Z,10.45
2023-01-20T05:06:26.006Z,11.32
2023-01-20T05:08:52.272Z,10.38
2023-01-20T05:11:18.557Z,11.65
2023-01-20T05:13:44.811Z,10.98
2023-01-20T05:16:11.274Z,10.88
2023-01-20T05:18:37.646Z,11.70
2023-01-20T05:21:04.887Z,11.55
2023-01-20T05:23:31.178Z,11.48
2023-01-20T05:25:57.428Z,12.20
2023-01-20T05:28:23.789Z,12.18
2023-01-20T05:30:50.671Z,11.63
2023-01-20T05:33:16.952Z,11.77
2023-01-20T05:35:43.169Z,12.90
2023-01-20T05:38:09.409Z,16.23
2023-01-20T05:40:35.641Z,11.65
2023-01-20T05:43:02.297Z,12.43
2023-01-20T05:45:29.218Z,11.52
2023-01-20T05:47:56.291Z,11.90
2023-01-20T05:50:22.507Z,13.98
2023-01-20T05:52:49.536Z,11.70
2023-01-20T05:55:16.196Z,12.85
2023-01-20T05:57:42.690Z,12.73
2023-01-20T06:00:09.365Z,12.32
2023-01-20T06:02:35.693Z,15.00
2023-01-20T06:05:01.927Z,18.88
2023-01-20T06:07:29.157Z,14.50
2023-01-20T06:09:55.759Z,16.77
2023-01-20T06:12:22.155Z,12.70
2023-01-20T06:14:48.429Z,12.70
2023-01-20T06:17:14.649Z,11.48
2023-01-20T06:19:40.866Z,11.00
2023-01-20T06:22:08.029Z,11.15
2023-01-20T06:24:34.254Z,15.43
2023-01-20T06:27:00.525Z,14.20
2023-01-20T06:29:26.753Z,13.57
2023-01-20T06:31:53.018Z,12.07
2023-01-20T06:34:19.239Z,19.55
2023-01-20T06:36:45.502Z,14.07
2023-01-20T06:39:11.720Z,11.90
2023-01-20T06:41:37.955Z,11.55
2023-01-20T06:44:04.244Z,8.25
2023-01-20T06:46:30.727Z,11.30
2023-01-20T06:49:00.834Z,11.80
2023-01-20T06:51:28.396Z,11.98
2023-01-20T06:53:54.666Z,10.73
2023-01-20T06:56:21.261Z,11.00
2023-01-20T06:58:47.923Z,10.32
2023-01-20T07:01:20.361Z,11.35
2023-01-20T07:03:46.664Z,11.98
2023-01-20T07:06:24.986Z,11.40
2023-01-20T07:08:51.644Z,11.98
2023-01-20T07:11:18.138Z,13.30
2023-01-20T07:13:44.406Z,12.15
2023-01-20T07:16:14.428Z,13.40
2023-01-20T07:18:41.986Z,18.70
2023-01-20T07:21:09.642Z,20.10
2023-01-20T07:23:36.133Z,15.52
2023-01-20T07:26:04.530Z,19.38
2023-01-20T07:28:31.398Z,17.85
2023-01-20T07:31:11.058Z,15.10
2023-01-20T07:33:37.891Z,16.85
2023-01-20T07:38:30.595Z,16.67
2023-01-20T07:40:57.845Z,18.15
2023-01-20T07:43:24.161Z,14.52
2023-01-20T07:45:50.565Z,13.95
2023-01-20T07:48:16.868Z,14.98
2023-01-20T07:50:43.177Z,16.40
2023-01-20T07:53:09.430Z,17.27
2023-01-20T07:55:35.701Z,18.08
2023-01-20T07:58:02.394Z,23.77
2023-01-20T08:00:28.630Z,19.73
2023-01-20T08:02:54.868Z,15.88
2023-01-20T08:05:21.162Z,15.48
2023-01-20T08:07:51.097Z,17.58
2023-01-20T08:10:17.621Z,15.43
2023-01-20T08:12:43.864Z,26.75
2023-01-20T08:15:10.527Z,19.85
2023-01-20T08:17:36.779Z,19.67
2023-01-20T08:20:03.268Z,17.35
2023-01-20T08:22:29.603Z,20.98
2023-01-20T08:24:55.851Z,19.65
2023-01-20T08:27:22.114Z,17.40
2023-01-20T08:29:48.345Z,17.02
2023-01-20T08:32:14.615Z,16.75
2023-01-20T08:34:40.849Z,16.40
2023-01-20T08:37:07.677Z,17.00
2023-01-20T08:42:00.093Z,14.40
2023-01-20T08:44:27.282Z,15.88
2023-01-20T08:46:57.938Z,15.13
2023-01-20T08:49:24.205Z,14.23
2023-01-20T08:51:50.441Z,15.27
2023-01-20T08:54:16.807Z,15.18
2023-01-20T08:56:43.060Z,16.05
2023-01-20T08:59:10.409Z,16.33
2023-01-20T09:01:37.783Z,15.52
2023-01-20T09:04:06.799Z,16.73
2023-01-20T09:06:38.228Z,15.40
2023-01-20T09:09:04.724Z,14.18
2023-01-20T09:11:31.561Z,13.75
2023-01-20T09:16:24.119Z,15.13
2023-01-20T09:18:50.387Z,14.98
2023-01-20T09:21:16.664Z,16.65
2023-01-20T09:23:43.348Z,13.88
2023-01-20T09:26:09.778Z,14.18
2023-01-20T09:28:36.144Z,13.98
2023-01-20T09:31:09.616Z,14.30
2023-01-20T09:33:38.997Z,12.63
2023-01-20T09:36:06.522Z,11.85
2023-01-20T09:38:51.510Z,11.50
2023-01-20T09:41:37.734Z,12.38
2023-01-20T09:44:10.047Z,13.18
2023-01-20T09:46:46.100Z,11.60
2023-01-20T09:49:41.084Z,12.50
2023-01-20T09:52:32.004Z,13.15
2023-01-20T09:55:02.947Z,14.77
2023-01-20T09:57:30.981Z,14.02
2023-01-20T10:00:17.368Z,12.45
2023-01-20T10:02:46.439Z,11.60
2023-01-20T10:05:13.960Z,11.43
2023-01-20T10:07:51.124Z,11.35
2023-01-20T10:10:23.612Z,10.90
2023-01-20T10:12:54.656Z,11.35
2023-01-20T10:15:21.298Z,12.30
2023-01-20T10:17:47.518Z,11.70
2023-01-20T10:20:21.242Z,10.65
2023-01-20T10:22:53.537Z,11.18
2023-01-20T10:25:24.716Z,10.95
2023-01-20T10:27:55.893Z,10.73
2023-01-20T10:30:24.675Z,9.35
2023-01-20T10:33:02.866Z,10.65
2023-01-20T10:35:31.052Z,9.73
2023-01-20T10:37:58.877Z,10.95
2023-01-20T10:40:35.378Z,10.32
2023-01-20T10:43:09.422Z,24.27
2023-01-20T10:45:57.043Z,10.55
2023-01-20T10:48:26.032Z,9.98
2023-01-20T10:50:52.245Z,9.95
2023-01-20T10:53:24.788Z,10.00
2023-01-20T10:56:06.487Z,11.15
2023-01-20T10:58:37.663Z,9.82
2023-01-20T11:01:05.599Z,10.02
2023-01-20T11:03:35.263Z,9.85
2023-01-20T11:06:02.894Z,10.02
2023-01-20T11:08:29.778Z,10.23
2023-01-20T11:13:22.623Z,9.48
2023-01-20T11:15:51.015Z,15.30
2023-01-20T11:18:17.257Z,8.98
2023-01-20T11:20:50.981Z,8.57
2023-01-20T11:23:27.498Z,6.15
2023-01-20T11:25:55.764Z,7.13
2023-01-20T11:28:22.694Z,5.90
2023-01-20T11:33:25.577Z,4.45
2023-01-20T11:35:58.700Z,6.00
2023-01-20T11:38:26.032Z,5.00
2023-01-20T11:40:57.154Z,5.80
2023-01-20T11:43:29.413Z,5.25
2023-01-20T11:46:09.494Z,5.65
2023-01-20T11:48:35.818Z,5.88
2023-01-20T11:51:02.514Z,6.10
2023-01-20T11:53:31.551Z,5.28
2023-01-20T11:55:57.790Z,6.72
2023-01-20T11:58:25.458Z,5.88
2023-01-20T12:00:58.643Z,8.05
2023-01-20T12:03:31.103Z,6.78
2023-01-20T12:06:16.365Z,5.53
2023-01-20T12:08:46.695Z,6.40
2023-01-20T12:11:14.548Z,5.15
2023-01-20T12:14:03.091Z,4.68
2023-01-20T12:16:30.644Z,4.90
2023-01-20T12:19:02.222Z,7.53
2023-01-20T12:21:37.236Z,6.47
2023-01-20T12:24:17.934Z,8.25
2023-01-20T12:26:44.236Z,5.88
2023-01-20T12:29:19.470Z,13.00
2023-01-20T12:31:48.964Z,6.80
2023-01-20T12:34:17.072Z,7.50
2023-01-20T12:36:43.262Z,7.63
2023-01-20T12:39:21.486Z,5.70
2023-01-20T12:41:53.791Z,6.30
2023-01-20T12:44:23.650Z,9.13
2023-01-20T12:46:53.219Z,5.72
2023-01-20T12:49:35.772Z,6.32
2023-01-20T12:52:15.781Z,7.43
2023-01-20T12:54:48.271Z,7.13
2023-01-20T12:57:28.092Z,8.90
2023-01-20T13:00:14.992Z,9.73
2023-01-20T13:02:52.194Z,9.05
2023-01-20T13:05:18.511Z,9.27
2023-01-20T13:07:50.929Z,9.27
2023-01-20T13:10:26.299Z,9.48
2023-01-20T13:13:11.436Z,9.48
2023-01-20T13:15:42.034Z,12.40
2023-01-20T13:18:19.814Z,9.00
2023-01-20T13:20:46.577Z,7.57
2023-01-20T13:23:14.942Z,8.30
2023-01-20T13:25:42.005Z,8.20
2023-01-20T13:28:14.926Z,9.13
2023-01-20T13:30:43.169Z,7.80
2023-01-20T13:33:36.041Z,9.73
2023-01-20T13:36:14.416Z,8.73
2023-01-20T13:38:40.814Z,9.38
2023-01-20T13:41:07.110Z,34.88
2023-01-20T13:43:34.860Z,10.13
2023-01-20T13:46:07.423Z,14.00
2023-01-20T13:48:35.332Z,12.95
2023-01-20T13:51:19.604Z,14.27
2023-01-20T13:53:46.044Z,11.55
2023-01-20T13:56:26.323Z,10.32
2023-01-20T13:58:53.489Z,11.10
2023-01-20T14:01:19.804Z,10.10
2023-01-20T14:04:00.276Z,10.35
2023-01-20T14:06:28.290Z,9.93
2023-01-20T14:08:54.599Z,10.93
2023-01-20T14:11:24.807Z,11.45
2023-01-20T14:13:52.385Z,9.82
2023-01-20T14:16:20.188Z,9.52
2023-01-20T14:18:47.400Z,8.18
2023-01-20T14:21:27.346Z,9.35
2023-01-20T14:23:53.745Z,8.05
2023-01-20T14:26:21.643Z,8.35
2023-01-20T14:28:52.211Z,8.27
2023-01-20T14:31:20.516Z,8.07
2023-01-20T14:34:07.051Z,7.90
2023-01-20T14:36:33.417Z,8.10
2023-01-20T14:39:03.738Z,8.45
2023-01-20T14:41:30.251Z,7.55
2023-01-20T14:43:56.776Z,9.77
2023-01-20T14:46:27.010Z,9.63
2023-01-20T14:48:54.425Z,8.77
2023-01-20T14:51:21.280Z,8.60
2023-01-20T14:56:18.098Z,9.52
2023-01-20T14:58:46.030Z,10.55
2023-01-20T15:01:19.924Z,10.02
2023-01-20T15:03:46.246Z,10.43
2023-01-20T15:06:15.578Z,9.43
2023-01-20T15:08:56.808Z,9.07
2023-01-20T15:11:32.517Z,9.52
2023-01-20T15:14:01.896Z,8.63
2023-01-20T15:16:38.653Z,8.55
2023-01-20T15:19:17.230Z,8.13
2023-01-20T15:21:56.568Z,8.18
2023-01-20T15:24:32.795Z,8.48
2023-01-20T15:27:00.627Z,8.20
2023-01-20T15:29:29.705Z,9.25
2023-01-20T15:31:57.854Z,9.48
2023-01-20T15:34:24.700Z,8.48
2023-01-20T15:39:18.168Z,7.35
2023-01-20T15:41:45.123Z,8.48
2023-01-20T15:44:11.370Z,9.15
2023-01-20T15:46:39.422Z,10.15
2023-01-20T15:49:09.896Z,11.95
2023-01-20T15:51:36.159Z,10.70
2023-01-20T15:54:02.384Z,10.38
2023-01-20T15:56:29.597Z,12.70
2023-01-20T15:58:55.912Z,11.98
2023-01-20T16:01:24.905Z,11.85
2023-01-20T16:03:51.782Z,12.05
2023-01-20T16:08:48.258Z,11.75
2023-01-20T16:11:14.765Z,13.68
2023-01-20T16:13:41.124Z,12.77
2023-01-20T16:16:12.706Z,14.20
2023-01-20T16:18:39.034Z,15.27
2023-01-20T16:21:05.410Z,12.57
2023-01-20T16:23:31.722Z,13.05
2023-01-20T16:25:58.096Z,12.43
2023-01-20T16:28:24.450Z,10.90
2023-01-20T16:30:51.515Z,11.95
2023-01-20T16:33:19.352Z,11.85
2023-01-20T16:35:45.568Z,11.65
2023-01-20T16:38:15.469Z,11.40
2023-01-20T16:40:45.414Z,11.30
2023-01-20T16:43:12.680Z,12.20
2023-01-20T16:45:39.084Z,11.70
2023-01-20T16:48:05.448Z,11.18
2023-01-20T16:50:31.686Z,11.20
2023-01-20T16:52:58.018Z,13.43
2023-01-20T16:55:24.349Z,11.90
2023-01-20T16:57:50.622Z,12.27
2023-01-20T17:00:18.985Z,11.65
2023-01-20T17:02:48.677Z,13.25
2023-01-20T17:05:14.900Z,11.30
2023-01-20T17:07:41.143Z,27.98
2023-01-20T17:10:07.535Z,16.13
2023-01-20T17:12:33.782Z,19.17
2023-01-20T17:14:59.997Z,14.45
2023-01-20T17:17:26.231Z,11.30
2023-01-20T17:19:52.457Z,15.05
2023-01-20T17:22:18.805Z,10.32
2023-01-20T17:24:45.052Z,10.85
2023-01-20T17:27:11.338Z,11.88
2023-01-20T17:29:38.304Z,11.90
2023-01-20T17:32:04.600Z,11.88
2023-01-20T17:34:30.927Z,11.95
2023-01-20T17:36:57.156Z,11.63
2023-01-20T17:39:23.410Z,12.57
2023-01-20T17:41:49.697Z,12.43
2023-01-20T17:44:16.063Z,11.38
2023-01-20T17:46:42.311Z,14.82
2023-01-20T17:49:08.842Z,13.13
2023-01-20T17:51:35.115Z,12.35
2023-01-20T17:54:03.794Z,11.82
2023-01-20T17:56:30.497Z,12.18
2023-01-20T17:58:56.845Z,10.32
2023-01-20T18:01:24.569Z,9.32
2023-01-20T18:03:51.738Z,11.30
2023-01-20T18:06:18.945Z,13.15
2023-01-20T18:08:49.560Z,12.93
2023-01-20T18:11:15.971Z,13.70
2023-01-20T18:13:44.752Z,12.25
2023-01-20T18:16:12.460Z,13.70
2023-01-20T18:18:39.285Z,13.55
2023-01-20T18:23:31.667Z,12.13
2023-01-20T18:25:58.454Z,13.75
2023-01-20T18:30:51.076Z,14.20
2023-01-20T18:33:17.324Z,14.50
2023-01-20T18:35:43.551Z,16.42
2023-01-20T18:38:09.784Z,16.83
2023-01-20T18:40:36.018Z,17.13
2023-01-20T18:43:02.238Z,18.95
2023-01-20T18:45:28.976Z,18.77
2023-01-20T18:47:55.200Z,17.70
2023-01-20T18:50:21.430Z,20.35
2023-01-20T18:52:47.678Z,21.17
2023-01-20T18:55:14.001Z,21.77
2023-01-20T18:57:40.276Z,21.42
2023-01-20T19:00:06.899Z,20.08
2023-01-20T19:02:34.213Z,22.45
2023-01-20T19:05:00.543Z,21.00
2023-01-20T19:07:26.766Z,23.20
2023-01-20T19:09:53.017Z,16.10
2023-01-20T19:12:19.230Z,17.02
2023-01-20T19:14:45.509Z,27.23
2023-01-20T19:17:11.737Z,33.50
2023-01-20T19:19:38.026Z,37.28
2023-01-20T19:22:04.250Z,26.45
2023-01-20T19:24:30.529Z,37.83
2023-01-20T19:26:58.005Z,28.30
2023-01-20T19:29:28.256Z,37.75
2023-01-20T19:31:55.499Z,28.63
2023-01-20T19:34:21.723Z,30.75
2023-01-20T19:36:48.054Z,25.45
2023-01-20T19:39:14.354Z,15.82
2023-01-20T19:41:40.644Z,15.63
2023-01-20T19:44:07.704Z,12.88
2023-01-20T19:46:35.361Z,15.57
2023-01-20T19:49:02.247Z,13.45
2023-01-20T19:53:57.827Z,11.60
2023-01-20T19:56:24.907Z,11.57
2023-01-20T19:58:51.801Z,13.45
2023-01-20T20:01:22.375Z,15.63
2023-01-20T20:03:49.564Z,12.43
2023-01-20T20:06:23.850Z,11.32
2023-01-20T20:08:50.729Z,13.32
2023-01-20T20:11:17.223Z,12.35
2023-01-20T20:13:43.457Z,13.15
2023-01-20T20:16:09.968Z,12.13
2023-01-20T20:18:36.182Z,11.75
2023-01-20T20:21:03.387Z,11.07
2023-01-20T20:23:29.891Z,11.48
2023-01-20T20:25:56.396Z,11.68
2023-01-20T20:28:26.864Z,11.52
2023-01-20T20:30:56.700Z,10.85
2023-01-20T20:33:25.768Z,10.88
2023-01-20T20:35:52.040Z,10.45
2023-01-20T20:38:18.689Z,10.52
2023-01-20T20:40:44.967Z,10.15
2023-01-20T20:43:11.215Z,10.35
2023-01-20T20:45:37.473Z,10.25
2023-01-20T20:48:04.646Z,10.02
2023-01-20T20:50:31.088Z,10.88
2023-01-20T20:52:57.936Z,10.05
2023-01-20T20:57:51.488Z,13.30
2023-01-20T21:00:19.537Z,11.13
2023-01-20T21:02:45.761Z,9.95
2023-01-20T21:05:12.035Z,10.25
2023-01-20T21:07:38.323Z,10.82
2023-01-20T21:10:04.977Z,11.18
2023-01-20T21:12:31.213Z,10.85
2023-01-20T21:14:57.409Z,11.68
2023-01-20T21:17:23.631Z,10.85
2023-01-20T21:19:52.337Z,11.23
2023-01-20T21:22:19.865Z,10.63
2023-01-20T21:24:46.076Z,12.30
2023-01-20T21:27:12.376Z,12.32
2023-01-20T21:29:38.814Z,11.35
2023-01-20T21:32:05.236Z,11.10
2023-01-20T21:34:31.476Z,11.13
2023-01-20T21:36:58.523Z,11.63
2023-01-20T21:39:24.771Z,11.35
2023-01-20T21:41:51.029Z,11.93
2023-01-20T21:44:29.687Z,11.73
2023-01-20T21:47:00.280Z,12.05
2023-01-20T21:49:45.628Z,12.52
2023-01-20T21:52:31.410Z,13.38
2023-01-20T21:54:57.699Z,13.88
2023-01-20T21:57:25.053Z,14.52
2023-01-20T21:59:52.065Z,13.80
2023-01-20T22:02:18.685Z,14.20
2023-01-20T22:04:46.136Z,14.32
2023-01-20T22:07:12.687Z,14.32
2023-01-20T22:12:05.521Z,12.85
2023-01-20T22:14:34.526Z,13.63
2023-01-20T22:17:00.858Z,13.93
2023-01-20T22:19:27.136Z,15.23
2023-01-20T22:21:53.408Z,13.38
2023-01-20T22:24:19.617Z,16.35
2023-01-20T22:26:47.202Z,15.85
2023-01-20T22:29:13.713Z,17.02
2023-01-20T22:31:40.029Z,19.02
2023-01-20T22:34:06.698Z,19.13
2023-01-20T22:36:33.593Z,21.95
2023-01-20T22:38:59.908Z,24.55
2023-01-20T22:41:26.478Z,23.92
2023-01-20T22:43:52.720Z,23.38
2023-01-20T22:46:20.487Z,22.25
2023-01-20T22:48:46.804Z,23.15
2023-01-20T22:51:14.424Z,21.27
2023-01-20T22:53:41.001Z,22.88
2023-01-20T22:56:08.612Z,21.38
2023-01-20T22:58:34.857Z,18.52
2023-01-20T23:01:01.192Z,18.83
2023-01-20T23:03:27.583Z,15.13
2023-01-20T23:05:58.186Z,16.00
2023-01-20T23:08:25.065Z,15.45
2023-01-20T23:10:54.276Z,13.43
2023-01-20T23:13:20.770Z,13.48
2023-01-20T23:15:47.205Z,15.25
2023-01-20T23:18:13.478Z,12.90
2023-01-20T23:20:39.805Z,11.88
2023-01-20T23:23:06.505Z,12.20
2023-01-20T23:25:32.836Z,12.50
2023-01-20T23:27:59.116Z,13.05
2023-01-20T23:30:26.508Z,11.63
2023-01-20T23:32:52.973Z,11.23
2023-01-20T23:35:19.429Z,12.00
2023-01-20T23:37:45.892Z,14.48
2023-01-20T23:40:12.179Z,17.30
2023-01-20T23:42:38.527Z,19.92
2023-01-20T23:45:05.001Z,20.08
2023-01-20T23:47:31.204Z,18.85
2023-01-20T23:49:57.434Z,18.10
2023-01-20T23:52:25.841Z,17.42
2023-01-20T23:54:52.754Z,16.27
2023-01-20T23:57:19.084Z,16.13
2023-01-20T23:59:45.366Z,18.98
